sensor_id;sensor_type;location;lat;lon;timestamp;temperature;humidity
8103;DHT22;4094;49.948;11.574;2023-10-19T00:02:49;11.40;67.80
8103;DHT22;4094;49.948;11.574;2023-10-19T00:05:20;11.40;68.20
8103;DHT22;4094;49.948;11.574;2023-10-19T00:07:49;11.40;68.30
8103;DHT22;4094;49.948;11.574;2023-10-19T00:10:18;11.40;69.20
8103;DHT22;4094;49.948;11.574;2023-10-19T00:12:49;11.40;68.40
8103;DHT22;4094;49.948;11.574;2023-10-19T00:15:25;11.40;68.80
8103;DHT22;4094;49.948;11.574;2023-10-19T00:17:54;11.40;68.60
8103;DHT22;4094;49.948;11.574;2023-10-19T00:20:23;11.40;68.80
8103;DHT22;4094;49.948;11.574;2023-10-19T00:23:04;11.30;69.10
8103;DHT22;4094;49.948;11.574;2023-10-19T00:25:34;11.40;68.90
8103;DHT22;4094;49.948;11.574;2023-10-19T00:28:04;11.30;68.90
8103;DHT22;4094;49.948;11.574;2023-10-19T00:30:33;11.40;69.20
8103;DHT22;4094;49.948;11.574;2023-10-19T00:33:03;11.40;69.50
8103;DHT22;4094;49.948;11.574;2023-10-19T00:35:43;11.40;69.50
8103;DHT22;4094;49.948;11.574;2023-10-19T00:38:18;11.30;69.50
8103;DHT22;4094;49.948;11.574;2023-10-19T00:40:55;11.40;69.60
8103;DHT22;4094;49.948;11.574;2023-10-19T00:43:33;11.40;69.80
8103;DHT22;4094;49.948;11.574;2023-10-19T00:46:04;11.40;70.00
8103;DHT22;4094;49.948;11.574;2023-10-19T00:48:37;11.40;70.00
8103;DHT22;4094;49.948;11.574;2023-10-19T00:51:08;11.40;70.10
8103;DHT22;4094;49.948;11.574;2023-10-19T00:53:41;11.30;70.20
8103;DHT22;4094;49.948;11.574;2023-10-19T00:56:10;11.30;70.30
8103;DHT22;4094;49.948;11.574;2023-10-19T00:58:40;11.30;70.30
8103;DHT22;4094;49.948;11.574;2023-10-19T01:01:09;11.30;70.60
8103;DHT22;4094;49.948;11.574;2023-10-19T01:03:38;11.30;70.80
8103;DHT22;4094;49.948;11.574;2023-10-19T01:06:08;11.30;70.80
8103;DHT22;4094;49.948;11.574;2023-10-19T01:08:40;11.30;70.90
8103;DHT22;4094;49.948;11.574;2023-10-19T01:11:13;11.30;71.30
8103;DHT22;4094;49.948;11.574;2023-10-19T01:13:44;11.20;71.10
8103;DHT22;4094;49.948;11.574;2023-10-19T01:16:15;11.20;71.20
8103;DHT22;4094;49.948;11.574;2023-10-19T01:18:49;11.20;71.30
8103;DHT22;4094;49.948;11.574;2023-10-19T01:21:23;11.20;71.40
8103;DHT22;4094;49.948;11.574;2023-10-19T01:23:57;11.10;71.60
8103;DHT22;4094;49.948;11.574;2023-10-19T01:26:26;11.10;71.80
8103;DHT22;4094;49.948;11.574;2023-10-19T01:28:55;11.10;71.60
8103;DHT22;4094;49.948;11.574;2023-10-19T01:31:29;11.10;71.80
8103;DHT22;4094;49.948;11.574;2023-10-19T01:34:07;11.10;71.90
8103;DHT22;4094;49.948;11.574;2023-10-19T01:36:37;11.00;72.10
8103;DHT22;4094;49.948;11.574;2023-10-19T01:39:11;11.00;72.00
8103;DHT22;4094;49.948;11.574;2023-10-19T01:41:40;11.00;72.10
8103;DHT22;4094;49.948;11.574;2023-10-19T01:44:10;11.00;72.10
8103;DHT22;4094;49.948;11.574;2023-10-19T01:46:42;11.00;72.10
8103;DHT22;4094;49.948;11.574;2023-10-19T01:49:13;11.00;72.20
8103;DHT22;4094;49.948;11.574;2023-10-19T01:51:41;11.00;72.30
8103;DHT22;4094;49.948;11.574;2023-10-19T01:54:13;11.00;72.40
8103;DHT22;4094;49.948;11.574;2023-10-19T01:56:42;11.00;72.50
8103;DHT22;4094;49.948;11.574;2023-10-19T01:59:11;11.00;72.50
8103;DHT22;4094;49.948;11.574;2023-10-19T02:01:41;11.00;72.60
8103;DHT22;4094;49.948;11.574;2023-10-19T02:04:13;11.00;72.60
8103;DHT22;4094;49.948;11.574;2023-10-19T02:06:41;11.00;72.70
8103;DHT22;4094;49.948;11.574;2023-10-19T02:09:15;11.00;72.70
8103;DHT22;4094;49.948;11.574;2023-10-19T02:11:50;11.00;73.00
8103;DHT22;4094;49.948;11.574;2023-10-19T02:14:20;11.00;73.10
8103;DHT22;4094;49.948;11.574;2023-10-19T02:16:50;11.00;73.00
8103;DHT22;4094;49.948;11.574;2023-10-19T02:19:21;11.00;73.10
8103;DHT22;4094;49.948;11.574;2023-10-19T02:21:51;11.00;73.10
8103;DHT22;4094;49.948;11.574;2023-10-19T02:24:22;11.00;73.10
8103;DHT22;4094;49.948;11.574;2023-10-19T02:26:52;11.00;73.20
8103;DHT22;4094;49.948;11.574;2023-10-19T02:29:22;11.00;74.00
8103;DHT22;4094;49.948;11.574;2023-10-19T02:31:51;11.00;73.40
8103;DHT22;4094;49.948;11.574;2023-10-19T02:34:21;11.10;73.40
8103;DHT22;4094;49.948;11.574;2023-10-19T02:36:51;11.10;73.40
8103;DHT22;4094;49.948;11.574;2023-10-19T02:39:22;11.10;73.30
8103;DHT22;4094;49.948;11.574;2023-10-19T02:41:55;11.10;73.30
8103;DHT22;4094;49.948;11.574;2023-10-19T02:44:28;11.20;73.30
8103;DHT22;4094;49.948;11.574;2023-10-19T02:46:58;11.20;73.20
8103;DHT22;4094;49.948;11.574;2023-10-19T02:49:30;11.20;73.10
8103;DHT22;4094;49.948;11.574;2023-10-19T02:51:58;11.20;73.10
8103;DHT22;4094;49.948;11.574;2023-10-19T02:54:33;11.20;73.10
8103;DHT22;4094;49.948;11.574;2023-10-19T02:57:03;11.30;73.30
8103;DHT22;4094;49.948;11.574;2023-10-19T02:59:35;11.30;73.20
8103;DHT22;4094;49.948;11.574;2023-10-19T03:02:04;11.30;73.30
8103;DHT22;4094;49.948;11.574;2023-10-19T03:04:44;11.30;73.10
8103;DHT22;4094;49.948;11.574;2023-10-19T03:07:14;11.30;73.10
8103;DHT22;4094;49.948;11.574;2023-10-19T03:09:45;11.30;73.30
8103;DHT22;4094;49.948;11.574;2023-10-19T03:12:17;11.30;73.20
8103;DHT22;4094;49.948;11.574;2023-10-19T03:14:46;11.30;73.10
8103;DHT22;4094;49.948;11.574;2023-10-19T03:17:16;11.30;73.10
8103;DHT22;4094;49.948;11.574;2023-10-19T03:19:45;11.30;74.00
8103;DHT22;4094;49.948;11.574;2023-10-19T03:22:14;11.30;73.20
8103;DHT22;4094;49.948;11.574;2023-10-19T03:24:46;11.40;73.30
8103;DHT22;4094;49.948;11.574;2023-10-19T03:27:15;11.40;73.30
8103;DHT22;4094;49.948;11.574;2023-10-19T03:29:46;11.40;73.00
8103;DHT22;4094;49.948;11.574;2023-10-19T03:32:21;11.40;73.10
8103;DHT22;4094;49.948;11.574;2023-10-19T03:34:55;11.40;73.20
8103;DHT22;4094;49.948;11.574;2023-10-19T03:37:26;11.40;73.20
8103;DHT22;4094;49.948;11.574;2023-10-19T03:39:58;11.40;74.30
8103;DHT22;4094;49.948;11.574;2023-10-19T03:42:31;11.40;73.40
8103;DHT22;4094;49.948;11.574;2023-10-19T03:45:01;11.40;73.40
8103;DHT22;4094;49.948;11.574;2023-10-19T03:47:36;11.40;73.30
8103;DHT22;4094;49.948;11.574;2023-10-19T03:50:07;11.40;73.30
8103;DHT22;4094;49.948;11.574;2023-10-19T03:52:48;11.40;73.30
8103;DHT22;4094;49.948;11.574;2023-10-19T03:55:18;11.40;73.20
8103;DHT22;4094;49.948;11.574;2023-10-19T03:57:51;11.30;74.00
8103;DHT22;4094;49.948;11.574;2023-10-19T04:00:22;11.30;73.30
8103;DHT22;4094;49.948;11.574;2023-10-19T04:02:55;11.40;73.40
8103;DHT22;4094;49.948;11.574;2023-10-19T04:05:26;11.30;73.60
8103;DHT22;4094;49.948;11.574;2023-10-19T04:07:56;11.30;73.60
8103;DHT22;4094;49.948;11.574;2023-10-19T04:10:28;11.40;73.50
8103;DHT22;4094;49.948;11.574;2023-10-19T04:13:12;11.30;73.30
8103;DHT22;4094;49.948;11.574;2023-10-19T04:15:41;11.30;73.40
8103;DHT22;4094;49.948;11.574;2023-10-19T04:18:10;11.30;73.40
8103;DHT22;4094;49.948;11.574;2023-10-19T04:20:39;11.30;73.30
8103;DHT22;4094;49.948;11.574;2023-10-19T04:23:23;11.30;73.30
8103;DHT22;4094;49.948;11.574;2023-10-19T04:25:56;11.30;73.20
8103;DHT22;4094;49.948;11.574;2023-10-19T04:28:26;11.30;73.40
8103;DHT22;4094;49.948;11.574;2023-10-19T04:31:07;11.20;73.40
8103;DHT22;4094;49.948;11.574;2023-10-19T04:33:41;11.20;73.40
8103;DHT22;4094;49.948;11.574;2023-10-19T04:36:14;11.20;73.50
8103;DHT22;4094;49.948;11.574;2023-10-19T04:38:43;11.20;73.60
8103;DHT22;4094;49.948;11.574;2023-10-19T04:41:14;11.20;73.60
8103;DHT22;4094;49.948;11.574;2023-10-19T04:43:44;11.20;73.60
8103;DHT22;4094;49.948;11.574;2023-10-19T04:46:18;11.30;73.60
8103;DHT22;4094;49.948;11.574;2023-10-19T04:48:47;11.30;73.50
8103;DHT22;4094;49.948;11.574;2023-10-19T04:51:17;11.30;73.50
8103;DHT22;4094;49.948;11.574;2023-10-19T04:53:46;11.30;73.70
8103;DHT22;4094;49.948;11.574;2023-10-19T04:56:20;11.30;73.60
8103;DHT22;4094;49.948;11.574;2023-10-19T04:58:59;11.30;73.60
8103;DHT22;4094;49.948;11.574;2023-10-19T05:01:28;11.30;73.60
8103;DHT22;4094;49.948;11.574;2023-10-19T05:04:00;11.30;73.60
8103;DHT22;4094;49.948;11.574;2023-10-19T05:06:30;11.20;73.50
8103;DHT22;4094;49.948;11.574;2023-10-19T05:08:59;11.30;74.00
8103;DHT22;4094;49.948;11.574;2023-10-19T05:11:32;11.30;73.90
8103;DHT22;4094;49.948;11.574;2023-10-19T05:14:01;11.20;73.80
8103;DHT22;4094;49.948;11.574;2023-10-19T05:16:33;11.20;74.70
8103;DHT22;4094;49.948;11.574;2023-10-19T05:19:02;11.30;74.10
8103;DHT22;4094;49.948;11.574;2023-10-19T05:21:32;11.20;73.90
8103;DHT22;4094;49.948;11.574;2023-10-19T05:24:02;11.20;73.90
8103;DHT22;4094;49.948;11.574;2023-10-19T05:26:35;11.20;73.90
8103;DHT22;4094;49.948;11.574;2023-10-19T05:29:04;11.20;74.10
8103;DHT22;4094;49.948;11.574;2023-10-19T05:31:33;11.20;74.10
8103;DHT22;4094;49.948;11.574;2023-10-19T05:34:03;11.30;74.30
8103;DHT22;4094;49.948;11.574;2023-10-19T05:36:32;11.20;74.10
8103;DHT22;4094;49.948;11.574;2023-10-19T05:39:01;11.30;74.30
8103;DHT22;4094;49.948;11.574;2023-10-19T05:41:31;11.30;74.40
8103;DHT22;4094;49.948;11.574;2023-10-19T05:44:03;11.30;74.30
8103;DHT22;4094;49.948;11.574;2023-10-19T05:46:32;11.30;74.40
8103;DHT22;4094;49.948;11.574;2023-10-19T05:49:02;11.30;74.30
8103;DHT22;4094;49.948;11.574;2023-10-19T05:51:31;11.30;74.50
8103;DHT22;4094;49.948;11.574;2023-10-19T05:54:00;11.30;74.60
8103;DHT22;4094;49.948;11.574;2023-10-19T05:56:31;11.30;74.60
8103;DHT22;4094;49.948;11.574;2023-10-19T05:59:03;11.30;74.70
8103;DHT22;4094;49.948;11.574;2023-10-19T06:01:34;11.30;74.90
8103;DHT22;4094;49.948;11.574;2023-10-19T06:04:05;11.30;74.90
8103;DHT22;4094;49.948;11.574;2023-10-19T06:06:34;11.30;74.90
8103;DHT22;4094;49.948;11.574;2023-10-19T06:09:05;11.30;74.80
8103;DHT22;4094;49.948;11.574;2023-10-19T06:11:36;11.30;74.90
8103;DHT22;4094;49.948;11.574;2023-10-19T06:14:11;11.30;74.90
8103;DHT22;4094;49.948;11.574;2023-10-19T06:16:41;11.30;74.80
8103;DHT22;4094;49.948;11.574;2023-10-19T06:19:10;11.40;74.90
8103;DHT22;4094;49.948;11.574;2023-10-19T06:21:39;11.30;74.90
8103;DHT22;4094;49.948;11.574;2023-10-19T06:24:09;11.30;75.10
8103;DHT22;4094;49.948;11.574;2023-10-19T06:26:42;11.30;75.20
8103;DHT22;4094;49.948;11.574;2023-10-19T06:29:12;11.30;75.30
8103;DHT22;4094;49.948;11.574;2023-10-19T06:31:41;11.30;76.30
8103;DHT22;4094;49.948;11.574;2023-10-19T06:34:11;11.40;75.60
8103;DHT22;4094;49.948;11.574;2023-10-19T06:36:40;11.40;75.70
8103;DHT22;4094;49.948;11.574;2023-10-19T06:39:09;11.40;75.60
8103;DHT22;4094;49.948;11.574;2023-10-19T06:41:41;11.40;75.70
8103;DHT22;4094;49.948;11.574;2023-10-19T06:44:10;11.50;75.70
8103;DHT22;4094;49.948;11.574;2023-10-19T06:46:41;11.50;75.70
8103;DHT22;4094;49.948;11.574;2023-10-19T06:49:11;11.50;76.50
8103;DHT22;4094;49.948;11.574;2023-10-19T06:51:40;11.50;75.70
8103;DHT22;4094;49.948;11.574;2023-10-19T06:54:09;11.50;76.00
8103;DHT22;4094;49.948;11.574;2023-10-19T06:56:40;11.50;75.80
8103;DHT22;4094;49.948;11.574;2023-10-19T06:59:09;11.50;75.80
8103;DHT22;4094;49.948;11.574;2023-10-19T07:01:38;11.50;75.80
8103;DHT22;4094;49.948;11.574;2023-10-19T07:04:09;11.50;75.60
8103;DHT22;4094;49.948;11.574;2023-10-19T07:06:39;11.50;75.70
8103;DHT22;4094;49.948;11.574;2023-10-19T07:09:08;11.50;76.70
8103;DHT22;4094;49.948;11.574;2023-10-19T07:11:38;11.60;76.00
8103;DHT22;4094;49.948;11.574;2023-10-19T07:14:07;11.60;76.00
8103;DHT22;4094;49.948;11.574;2023-10-19T07:16:37;11.60;76.20
8103;DHT22;4094;49.948;11.574;2023-10-19T07:19:08;11.60;76.10
8103;DHT22;4094;49.948;11.574;2023-10-19T07:21:38;11.60;76.20
8103;DHT22;4094;49.948;11.574;2023-10-19T07:24:10;11.60;76.20
8103;DHT22;4094;49.948;11.574;2023-10-19T07:26:39;11.60;76.20
8103;DHT22;4094;49.948;11.574;2023-10-19T07:29:19;11.60;76.20
8103;DHT22;4094;49.948;11.574;2023-10-19T07:31:49;11.60;76.30
8103;DHT22;4094;49.948;11.574;2023-10-19T07:34:21;11.60;76.40
8103;DHT22;4094;49.948;11.574;2023-10-19T07:36:54;11.60;76.50
8103;DHT22;4094;49.948;11.574;2023-10-19T07:39:23;11.70;76.50
8103;DHT22;4094;49.948;11.574;2023-10-19T07:41:53;11.70;76.30
8103;DHT22;4094;49.948;11.574;2023-10-19T07:44:22;11.80;76.40
8103;DHT22;4094;49.948;11.574;2023-10-19T07:46:53;11.80;76.20
8103;DHT22;4094;49.948;11.574;2023-10-19T07:49:23;11.80;76.10
8103;DHT22;4094;49.948;11.574;2023-10-19T07:51:53;11.80;76.00
8103;DHT22;4094;49.948;11.574;2023-10-19T07:54:25;11.80;75.90
8103;DHT22;4094;49.948;11.574;2023-10-19T07:56:55;11.80;75.90
8103;DHT22;4094;49.948;11.574;2023-10-19T07:59:25;11.80;75.90
8103;DHT22;4094;49.948;11.574;2023-10-19T08:01:55;11.80;76.00
8103;DHT22;4094;49.948;11.574;2023-10-19T08:04:25;11.90;76.00
8103;DHT22;4094;49.948;11.574;2023-10-19T08:06:56;11.90;75.90
8103;DHT22;4094;49.948;11.574;2023-10-19T08:09:26;11.90;76.00
8103;DHT22;4094;49.948;11.574;2023-10-19T08:11:59;11.90;76.00
8103;DHT22;4094;49.948;11.574;2023-10-19T08:14:29;11.90;76.00
8103;DHT22;4094;49.948;11.574;2023-10-19T08:16:59;12.00;76.40
8103;DHT22;4094;49.948;11.574;2023-10-19T08:19:29;12.00;76.50
8103;DHT22;4094;49.948;11.574;2023-10-19T08:21:59;12.00;76.30
8103;DHT22;4094;49.948;11.574;2023-10-19T08:24:28;12.00;76.40
8103;DHT22;4094;49.948;11.574;2023-10-19T08:26:59;12.10;76.40
8103;DHT22;4094;49.948;11.574;2023-10-19T08:29:28;12.10;76.40
8103;DHT22;4094;49.948;11.574;2023-10-19T08:31:58;12.10;76.50
8103;DHT22;4094;49.948;11.574;2023-10-19T08:34:28;12.20;76.30
8103;DHT22;4094;49.948;11.574;2023-10-19T08:36:59;12.20;76.20
8103;DHT22;4094;49.948;11.574;2023-10-19T08:39:28;12.30;76.10
8103;DHT22;4094;49.948;11.574;2023-10-19T08:42:04;12.30;76.00
8103;DHT22;4094;49.948;11.574;2023-10-19T08:44:34;12.30;76.00
8103;DHT22;4094;49.948;11.574;2023-10-19T08:47:03;12.40;76.30
8103;DHT22;4094;49.948;11.574;2023-10-19T08:49:34;12.40;76.40
8103;DHT22;4094;49.948;11.574;2023-10-19T08:52:05;12.50;77.20
8103;DHT22;4094;49.948;11.574;2023-10-19T08:54:35;12.50;76.50
8103;DHT22;4094;49.948;11.574;2023-10-19T08:57:05;12.60;76.50
8103;DHT22;4094;49.948;11.574;2023-10-19T08:59:34;12.70;76.30
8103;DHT22;4094;49.948;11.574;2023-10-19T09:02:03;12.70;76.10
8103;DHT22;4094;49.948;11.574;2023-10-19T09:04:42;12.80;76.10
8103;DHT22;4094;49.948;11.574;2023-10-19T09:07:13;12.80;76.30
8103;DHT22;4094;49.948;11.574;2023-10-19T09:09:42;12.90;76.50
8103;DHT22;4094;49.948;11.574;2023-10-19T09:12:11;13.00;76.40
8103;DHT22;4094;49.948;11.574;2023-10-19T09:14:41;13.10;76.20
8103;DHT22;4094;49.948;11.574;2023-10-19T09:17:11;13.20;75.90
8103;DHT22;4094;49.948;11.574;2023-10-19T09:19:43;13.30;75.80
8103;DHT22;4094;49.948;11.574;2023-10-19T09:22:15;13.30;75.90
8103;DHT22;4094;49.948;11.574;2023-10-19T09:24:51;13.40;76.20
8103;DHT22;4094;49.948;11.574;2023-10-19T09:27:22;13.60;76.50
8103;DHT22;4094;49.948;11.574;2023-10-19T09:29:51;13.70;76.20
8103;DHT22;4094;49.948;11.574;2023-10-19T09:32:20;13.80;75.60
8103;DHT22;4094;49.948;11.574;2023-10-19T09:34:52;13.90;75.60
8103;DHT22;4094;49.948;11.574;2023-10-19T09:37:21;14.00;75.20
8103;DHT22;4094;49.948;11.574;2023-10-19T09:39:51;14.10;74.80
8103;DHT22;4094;49.948;11.574;2023-10-19T09:42:22;14.20;74.50
8103;DHT22;4094;49.948;11.574;2023-10-19T09:44:59;14.30;74.20
8103;DHT22;4094;49.948;11.574;2023-10-19T09:47:35;14.30;73.80
8103;DHT22;4094;49.948;11.574;2023-10-19T09:50:09;14.30;73.60
8103;DHT22;4094;49.948;11.574;2023-10-19T09:52:39;14.30;73.10
8103;DHT22;4094;49.948;11.574;2023-10-19T09:55:12;14.30;72.80
8103;DHT22;4094;49.948;11.574;2023-10-19T09:57:49;14.30;72.70
8103;DHT22;4094;49.948;11.574;2023-10-19T10:00:20;14.20;72.40
8103;DHT22;4094;49.948;11.574;2023-10-19T10:02:52;14.20;72.60
8103;DHT22;4094;49.948;11.574;2023-10-19T10:05:47;14.10;72.70
8103;DHT22;4094;49.948;11.574;2023-10-19T10:08:30;14.10;73.20
8103;DHT22;4094;49.948;11.574;2023-10-19T10:11:15;14.00;73.00
8103;DHT22;4094;49.948;11.574;2023-10-19T10:13:45;14.00;73.10
8103;DHT22;4094;49.948;11.574;2023-10-19T10:16:21;14.00;73.30
8103;DHT22;4094;49.948;11.574;2023-10-19T10:18:54;14.00;73.90
8103;DHT22;4094;49.948;11.574;2023-10-19T10:21:25;14.00;73.40
8103;DHT22;4094;49.948;11.574;2023-10-19T10:23:56;14.00;73.20
8103;DHT22;4094;49.948;11.574;2023-10-19T10:26:26;14.00;73.30
8103;DHT22;4094;49.948;11.574;2023-10-19T10:29:11;13.90;73.30
8103;DHT22;4094;49.948;11.574;2023-10-19T10:31:43;14.00;73.60
8103;DHT22;4094;49.948;11.574;2023-10-19T10:34:42;14.00;74.00
8103;DHT22;4094;49.948;11.574;2023-10-19T10:37:13;14.10;74.30
8103;DHT22;4094;49.948;11.574;2023-10-19T10:39:42;14.20;74.30
8103;DHT22;4094;49.948;11.574;2023-10-19T10:42:13;14.30;74.10
8103;DHT22;4094;49.948;11.574;2023-10-19T10:44:45;14.40;73.90
8103;DHT22;4094;49.948;11.574;2023-10-19T10:47:16;14.40;73.30
8103;DHT22;4094;49.948;11.574;2023-10-19T10:49:50;14.40;73.10
8103;DHT22;4094;49.948;11.574;2023-10-19T10:52:26;14.50;73.20
8103;DHT22;4094;49.948;11.574;2023-10-19T10:54:58;14.50;73.30
8103;DHT22;4094;49.948;11.574;2023-10-19T10:57:31;14.50;73.50
8103;DHT22;4094;49.948;11.574;2023-10-19T11:00:06;14.60;73.40
8103;DHT22;4094;49.948;11.574;2023-10-19T11:02:36;14.60;73.30
8103;DHT22;4094;49.948;11.574;2023-10-19T11:05:11;14.70;72.90
8103;DHT22;4094;49.948;11.574;2023-10-19T11:08:04;14.70;72.70
8103;DHT22;4094;49.948;11.574;2023-10-19T11:10:34;14.70;72.80
8103;DHT22;4094;49.948;11.574;2023-10-19T11:13:05;14.70;73.00
8103;DHT22;4094;49.948;11.574;2023-10-19T11:15:35;14.80;73.40
8103;DHT22;4094;49.948;11.574;2023-10-19T11:18:06;14.90;73.70
8103;DHT22;4094;49.948;11.574;2023-10-19T11:20:36;15.00;73.90
8103;DHT22;4094;49.948;11.574;2023-10-19T11:23:06;15.10;73.60
8103;DHT22;4094;49.948;11.574;2023-10-19T11:25:36;15.20;73.40
8103;DHT22;4094;49.948;11.574;2023-10-19T11:28:16;15.20;73.30
8103;DHT22;4094;49.948;11.574;2023-10-19T11:30:46;15.30;72.80
8103;DHT22;4094;49.948;11.574;2023-10-19T11:33:16;15.50;73.60
8103;DHT22;4094;49.948;11.574;2023-10-19T11:35:50;15.70;74.00
8103;DHT22;4094;49.948;11.574;2023-10-19T11:38:21;16.00;73.90
8103;DHT22;4094;49.948;11.574;2023-10-19T11:40:50;16.30;73.60
8103;DHT22;4094;49.948;11.574;2023-10-19T11:43:20;16.60;72.20
8103;DHT22;4094;49.948;11.574;2023-10-19T11:45:50;16.80;71.10
8103;DHT22;4094;49.948;11.574;2023-10-19T11:48:19;16.90;70.50
8103;DHT22;4094;49.948;11.574;2023-10-19T11:50:50;17.10;69.70
8103;DHT22;4094;49.948;11.574;2023-10-19T11:53:20;17.10;69.50
8103;DHT22;4094;49.948;11.574;2023-10-19T11:55:50;17.20;69.30
8103;DHT22;4094;49.948;11.574;2023-10-19T11:58:19;17.20;68.40
8103;DHT22;4094;49.948;11.574;2023-10-19T12:00:48;17.30;68.10
8103;DHT22;4094;49.948;11.574;2023-10-19T12:03:19;17.30;68.20
8103;DHT22;4094;49.948;11.574;2023-10-19T12:05:48;17.30;67.80
8103;DHT22;4094;49.948;11.574;2023-10-19T12:08:17;17.30;67.70
8103;DHT22;4094;49.948;11.574;2023-10-19T12:10:50;17.30;67.50
8103;DHT22;4094;49.948;11.574;2023-10-19T12:13:19;17.30;67.50
8103;DHT22;4094;49.948;11.574;2023-10-19T12:15:48;17.20;67.50
8103;DHT22;4094;49.948;11.574;2023-10-19T12:18:20;17.10;67.50
8103;DHT22;4094;49.948;11.574;2023-10-19T12:20:49;17.00;67.70
8103;DHT22;4094;49.948;11.574;2023-10-19T12:23:18;17.00;68.10
8103;DHT22;4094;49.948;11.574;2023-10-19T12:25:52;16.90;68.10
8103;DHT22;4094;49.948;11.574;2023-10-19T12:28:25;16.90;68.50
8103;DHT22;4094;49.948;11.574;2023-10-19T12:30:54;16.80;68.50
8103;DHT22;4094;49.948;11.574;2023-10-19T12:33:24;16.80;68.80
8103;DHT22;4094;49.948;11.574;2023-10-19T12:35:54;16.80;68.60
8103;DHT22;4094;49.948;11.574;2023-10-19T12:38:25;16.80;68.90
8103;DHT22;4094;49.948;11.574;2023-10-19T12:40:56;16.80;68.80
8103;DHT22;4094;49.948;11.574;2023-10-19T12:43:26;16.90;68.50
8103;DHT22;4094;49.948;11.574;2023-10-19T12:45:58;16.90;68.80
8103;DHT22;4094;49.948;11.574;2023-10-19T12:48:27;16.90;68.90
8103;DHT22;4094;49.948;11.574;2023-10-19T12:51:01;16.80;68.60
8103;DHT22;4094;49.948;11.574;2023-10-19T12:53:31;16.80;68.50
8103;DHT22;4094;49.948;11.574;2023-10-19T12:56:02;16.80;68.50
8103;DHT22;4094;49.948;11.574;2023-10-19T12:58:32;16.70;68.40
8103;DHT22;4094;49.948;11.574;2023-10-19T13:01:01;16.70;68.60
8103;DHT22;4094;49.948;11.574;2023-10-19T13:03:33;16.60;68.90
8103;DHT22;4094;49.948;11.574;2023-10-19T13:06:04;16.50;69.00
8103;DHT22;4094;49.948;11.574;2023-10-19T13:08:35;16.40;69.20
8103;DHT22;4094;49.948;11.574;2023-10-19T13:11:07;16.40;69.60
8103;DHT22;4094;49.948;11.574;2023-10-19T13:13:45;16.30;69.70
8103;DHT22;4094;49.948;11.574;2023-10-19T13:16:15;16.30;70.00
8103;DHT22;4094;49.948;11.574;2023-10-19T13:18:45;16.30;70.20
8103;DHT22;4094;49.948;11.574;2023-10-19T13:21:14;16.20;70.40
8103;DHT22;4094;49.948;11.574;2023-10-19T13:23:56;16.20;70.40
8103;DHT22;4094;49.948;11.574;2023-10-19T13:26:38;16.20;70.70
8103;DHT22;4094;49.948;11.574;2023-10-19T13:29:42;16.20;70.80
8103;DHT22;4094;49.948;11.574;2023-10-19T13:32:18;16.20;70.90
8103;DHT22;4094;49.948;11.574;2023-10-19T13:35:21;16.20;71.10
8103;DHT22;4094;49.948;11.574;2023-10-19T13:37:50;16.30;71.00
8103;DHT22;4094;49.948;11.574;2023-10-19T13:40:20;16.30;71.00
8103;DHT22;4094;49.948;11.574;2023-10-19T13:42:52;16.30;71.10
8103;DHT22;4094;49.948;11.574;2023-10-19T13:45:41;16.30;71.20
8103;DHT22;4094;49.948;11.574;2023-10-19T13:48:13;16.30;71.20
8103;DHT22;4094;49.948;11.574;2023-10-19T13:50:45;16.30;71.20
8103;DHT22;4094;49.948;11.574;2023-10-19T13:53:16;16.30;71.20
8103;DHT22;4094;49.948;11.574;2023-10-19T13:55:45;16.30;71.20
8103;DHT22;4094;49.948;11.574;2023-10-19T13:58:16;16.30;71.30
8103;DHT22;4094;49.948;11.574;2023-10-19T14:00:45;16.30;71.30
8103;DHT22;4094;49.948;11.574;2023-10-19T14:03:15;16.30;71.40
8103;DHT22;4094;49.948;11.574;2023-10-19T14:05:45;16.30;71.40
8103;DHT22;4094;49.948;11.574;2023-10-19T14:08:17;16.30;71.40
8103;DHT22;4094;49.948;11.574;2023-10-19T14:10:46;16.30;71.40
8103;DHT22;4094;49.948;11.574;2023-10-19T14:13:17;16.30;71.40
8103;DHT22;4094;49.948;11.574;2023-10-19T14:15:46;16.30;71.50
8103;DHT22;4094;49.948;11.574;2023-10-19T14:18:15;16.30;71.70
8103;DHT22;4094;49.948;11.574;2023-10-19T14:20:44;16.30;71.70
8103;DHT22;4094;49.948;11.574;2023-10-19T14:23:13;16.20;71.70
8103;DHT22;4094;49.948;11.574;2023-10-19T14:25:43;16.20;71.80
8103;DHT22;4094;49.948;11.574;2023-10-19T14:28:12;16.20;71.80
8103;DHT22;4094;49.948;11.574;2023-10-19T14:30:43;16.20;71.80
8103;DHT22;4094;49.948;11.574;2023-10-19T14:33:12;16.20;71.80
8103;DHT22;4094;49.948;11.574;2023-10-19T14:35:42;16.20;71.90
8103;DHT22;4094;49.948;11.574;2023-10-19T14:38:11;16.20;72.00
8103;DHT22;4094;49.948;11.574;2023-10-19T14:40:42;16.10;72.10
8103;DHT22;4094;49.948;11.574;2023-10-19T14:43:14;16.20;72.10
8103;DHT22;4094;49.948;11.574;2023-10-19T14:45:45;16.10;72.20
8103;DHT22;4094;49.948;11.574;2023-10-19T14:48:14;16.10;72.30
8103;DHT22;4094;49.948;11.574;2023-10-19T14:50:45;16.10;72.30
8103;DHT22;4094;49.948;11.574;2023-10-19T14:53:15;16.10;72.40
8103;DHT22;4094;49.948;11.574;2023-10-19T14:55:44;16.10;72.70
8103;DHT22;4094;49.948;11.574;2023-10-19T14:58:13;16.10;72.70
8103;DHT22;4094;49.948;11.574;2023-10-19T15:00:42;16.10;72.70
8103;DHT22;4094;49.948;11.574;2023-10-19T15:03:14;16.00;72.80
8103;DHT22;4094;49.948;11.574;2023-10-19T15:05:44;16.10;72.90
8103;DHT22;4094;49.948;11.574;2023-10-19T15:08:13;16.10;73.10
8103;DHT22;4094;49.948;11.574;2023-10-19T15:10:42;16.10;73.20
8103;DHT22;4094;49.948;11.574;2023-10-19T15:13:11;16.10;73.20
8103;DHT22;4094;49.948;11.574;2023-10-19T15:15:40;16.10;73.40
8103;DHT22;4094;49.948;11.574;2023-10-19T15:18:09;16.10;73.40
8103;DHT22;4094;49.948;11.574;2023-10-19T15:20:40;16.10;73.50
8103;DHT22;4094;49.948;11.574;2023-10-19T15:23:09;16.10;73.70
8103;DHT22;4094;49.948;11.574;2023-10-19T15:25:38;16.10;73.70
8103;DHT22;4094;49.948;11.574;2023-10-19T15:28:08;16.10;73.70
8103;DHT22;4094;49.948;11.574;2023-10-19T15:30:38;16.10;73.90
8103;DHT22;4094;49.948;11.574;2023-10-19T15:33:10;16.00;74.00
8103;DHT22;4094;49.948;11.574;2023-10-19T15:35:41;16.10;74.00
8103;DHT22;4094;49.948;11.574;2023-10-19T15:38:10;16.00;74.00
8103;DHT22;4094;49.948;11.574;2023-10-19T15:40:39;16.00;74.20
8103;DHT22;4094;49.948;11.574;2023-10-19T15:43:09;16.00;74.20
8103;DHT22;4094;49.948;11.574;2023-10-19T15:45:40;16.00;74.40
8103;DHT22;4094;49.948;11.574;2023-10-19T15:48:11;16.00;74.50
8103;DHT22;4094;49.948;11.574;2023-10-19T15:50:42;16.00;74.40
8103;DHT22;4094;49.948;11.574;2023-10-19T15:53:11;15.90;74.30
8103;DHT22;4094;49.948;11.574;2023-10-19T15:55:40;15.90;74.40
8103;DHT22;4094;49.948;11.574;2023-10-19T15:58:09;15.80;74.40
8103;DHT22;4094;49.948;11.574;2023-10-19T16:00:39;15.90;74.40
8103;DHT22;4094;49.948;11.574;2023-10-19T16:03:08;15.90;74.50
8103;DHT22;4094;49.948;11.574;2023-10-19T16:05:37;15.80;74.50
8103;DHT22;4094;49.948;11.574;2023-10-19T16:08:08;15.80;74.40
8103;DHT22;4094;49.948;11.574;2023-10-19T16:10:38;15.80;74.40
8103;DHT22;4094;49.948;11.574;2023-10-19T16:13:07;15.80;74.40